Time;durP1;ratioP1;P1;durP2;ratioP2;P2;SDS_P1;SDS_P2;PMS_P1;PMS_P2;Temp;Humidity;BMP_temperature;BMP_pressure;BME280_temperature;BME280_humidity;BME280_pressure;Samples;Min_cycle;Max_cycle;Signal;HPM_P1;HPM_P2
2022/04/06 00:00:42;;;;;;;25.92;13.77;;;7.80;99.90;;;;;;5015449;28;20024;-52
2022/04/06 00:03:08;;;;;;;25.90;12.95;;;7.80;99.90;;;;;;5019720;28;20038;-52
2022/04/06 00:05:34;;;;;;;23.63;12.73;;;7.70;99.90;;;;;;5017540;28;20120;-54
2022/04/06 00:08:00;;;;;;;26.80;14.85;;;7.70;99.90;;;;;;5022475;28;20037;-52
2022/04/06 00:10:26;;;;;;;35.25;16.40;;;7.70;99.90;;;;;;5023048;28;20010;-52
2022/04/06 00:12:52;;;;;;;36.85;16.02;;;7.80;99.90;;;;;;5022064;28;20068;-53
2022/04/06 00:15:17;;;;;;;31.70;16.08;;;7.70;99.90;;;;;;5022305;28;20021;-52
2022/04/06 00:17:43;;;;;;;21.58;12.25;;;7.80;99.90;;;;;;5031213;28;20033;-53
2022/04/06 00:20:09;;;;;;;23.10;12.88;;;7.70;99.90;;;;;;5032248;28;20079;-53
2022/04/06 00:22:35;;;;;;;17.45;12.30;;;7.70;99.90;;;;;;5032476;28;20040;-53
2022/04/06 00:25:01;;;;;;;17.48;10.63;;;7.70;99.90;;;;;;5031904;28;20026;-53
2022/04/06 00:27:27;;;;;;;15.93;10.10;;;7.70;99.90;;;;;;5031807;28;20389;-52
2022/04/06 00:29:53;;;;;;;19.60;11.18;;;7.70;99.90;;;;;;5031250;28;20018;-56
2022/04/06 00:32:18;;;;;;;19.77;11.30;;;7.70;99.90;;;;;;5031778;28;20033;-52
2022/04/06 00:37:28;;;;;;;16.10;10.10;;;7.80;99.90;;;;;;5031809;28;20643;-53
2022/04/06 00:39:54;;;;;;;20.70;12.05;;;7.90;99.90;;;;;;5031360;28;20017;-52
2022/04/06 00:42:20;;;;;;;16.77;10.60;;;7.80;99.90;;;;;;5031351;28;20668;-53
2022/04/06 00:44:46;;;;;;;20.33;12.15;;;7.80;99.90;;;;;;5031566;28;20465;-54
2022/04/06 00:47:11;;;;;;;19.77;11.98;;;7.80;99.90;;;;;;5031421;28;20109;-54
2022/04/06 00:49:37;;;;;;;20.95;11.38;;;7.80;99.90;;;;;;5031575;28;20084;-53
2022/04/06 00:52:05;;;;;;;20.17;12.05;;;7.90;99.90;;;;;;5031350;28;20032;-53
2022/04/06 00:54:32;;;;;;;18.67;11.65;;;7.90;99.90;;;;;;5031328;28;20030;-52
2022/04/06 00:56:59;;;;;;;20.00;11.88;;;7.90;99.90;;;;;;5035673;28;20391;-53
2022/04/06 00:59:27;;;;;;;16.27;11.73;;;8.00;99.90;;;;;;5050962;28;20460;-54
2022/04/06 01:01:53;;;;;;;16.60;11.25;;;8.00;99.90;;;;;;5050944;28;20037;-53
2022/04/06 01:04:20;;;;;;;17.33;10.95;;;8.00;99.90;;;;;;5050859;28;20399;-54
2022/04/06 01:06:48;;;;;;;16.33;11.23;;;8.00;99.90;;;;;;5051110;28;20384;-53
2022/04/06 01:09:17;;;;;;;14.02;9.55;;;8.00;99.90;;;;;;5049711;28;20029;-52
2022/04/06 01:11:48;;;;;;;20.98;11.38;;;8.10;99.90;;;;;;5050684;28;20095;-53
2022/04/06 01:14:14;;;;;;;15.93;9.93;;;8.10;99.90;;;;;;5050768;28;20040;-52
2022/04/06 01:16:40;;;;;;;14.98;10.43;;;8.10;99.90;;;;;;5048810;28;20017;-52
2022/04/06 01:19:07;;;;;;;13.25;8.68;;;8.10;99.90;;;;;;5029905;28;20022;-53
2022/04/06 01:21:33;;;;;;;15.38;8.98;;;8.10;99.90;;;;;;5028885;28;20029;-53
2022/04/06 01:23:59;;;;;;;14.52;9.20;;;8.10;99.90;;;;;;5021338;28;20048;-54
2022/04/06 01:26:25;;;;;;;14.77;9.40;;;8.10;99.90;;;;;;5032011;28;20026;-53
2022/04/06 01:28:51;;;;;;;14.07;9.57;;;8.10;99.90;;;;;;5032094;28;20032;-52
2022/04/06 01:31:17;;;;;;;15.93;9.80;;;8.00;99.90;;;;;;5050681;28;20032;-52
2022/04/06 01:33:44;;;;;;;16.60;9.55;;;8.00;99.90;;;;;;5050645;28;20021;-53
2022/04/06 01:36:09;;;;;;;13.07;8.68;;;8.00;99.90;;;;;;5050593;28;20035;-52
2022/04/06 01:38:35;;;;;;;12.32;8.52;;;8.00;99.90;;;;;;5050509;28;20017;-53
2022/04/06 01:41:01;;;;;;;11.50;8.15;;;8.00;99.90;;;;;;5049135;28;20113;-53
2022/04/06 01:43:27;;;;;;;13.35;8.63;;;8.10;99.90;;;;;;5030744;28;20033;-53
2022/04/06 01:45:53;;;;;;;12.68;9.10;;;8.00;99.90;;;;;;5030750;28;20448;-52
2022/04/06 01:48:19;;;;;;;14.05;8.95;;;8.00;99.90;;;;;;5030427;28;20033;-53
2022/04/06 01:53:30;;;;;;;19.58;9.73;;;8.10;99.90;;;;;;5030397;28;20685;-51
2022/04/06 01:55:57;;;;;;;16.02;9.02;;;8.00;99.90;;;;;;5030493;28;20026;-54
2022/04/06 01:58:23;;;;;;;13.37;8.83;;;8.00;99.90;;;;;;5030546;28;20030;-54
2022/04/06 02:00:50;;;;;;;13.05;8.60;;;8.00;99.90;;;;;;5012024;28;20284;-53
2022/04/06 02:03:16;;;;;;;13.00;9.73;;;8.00;99.90;;;;;;5010764;28;20042;-53
2022/04/06 02:05:41;;;;;;;15.73;9.82;;;8.00;99.90;;;;;;5010371;28;20590;-54
2022/04/06 02:08:08;;;;;;;13.88;9.80;;;8.00;99.90;;;;;;5010278;28;20378;-54
2022/04/06 02:10:34;;;;;;;15.57;10.18;;;8.00;99.90;;;;;;5010526;28;20540;-52
2022/04/06 02:13:00;;;;;;;13.68;9.82;;;8.00;99.90;;;;;;5010251;28;20481;-52
2022/04/06 02:15:30;;;;;;;14.80;11.13;;;8.00;99.90;;;;;;5010199;28;20113;-54
2022/04/06 02:17:56;;;;;;;14.05;9.55;;;8.00;99.90;;;;;;5025364;28;20074;-51
2022/04/06 02:20:22;;;;;;;18.40;10.87;;;7.90;99.90;;;;;;5049918;28;20029;-52
2022/04/06 02:22:48;;;;;;;15.88;11.07;;;7.90;99.90;;;;;;5049594;28;20302;-53
2022/04/06 02:25:14;;;;;;;17.35;11.07;;;7.80;99.90;;;;;;5049590;28;20572;-52
2022/04/06 02:27:46;;;;;;;18.25;12.15;;;7.80;99.90;;;;;;5049685;28;20045;-51
2022/04/06 02:30:13;;;;;;;18.52;11.65;;;7.80;99.90;;;;;;5049395;28;20025;-53
2022/04/06 02:32:39;;;;;;;18.00;11.95;;;7.70;99.90;;;;;;5049518;28;20082;-52
2022/04/06 02:35:05;;;;;;;17.15;12.70;;;7.70;99.90;;;;;;5049545;28;20029;-51
2022/04/06 02:37:30;;;;;;;17.10;11.82;;;7.70;99.90;;;;;;5049436;28;20674;-52
2022/04/06 02:39:56;;;;;;;21.35;13.85;;;7.70;99.90;;;;;;5049608;28;20032;-53
2022/04/06 02:42:22;;;;;;;19.23;13.70;;;7.70;99.90;;;;;;5049378;28;20513;-53
2022/04/06 02:44:47;;;;;;;17.63;12.82;;;7.60;99.90;;;;;;5049239;28;20029;-54
2022/04/06 02:47:13;;;;;;;19.65;13.30;;;7.60;99.90;;;;;;5049499;28;20663;-52
2022/04/06 02:49:39;;;;;;;18.88;12.55;;;7.50;99.90;;;;;;5049167;28;20028;-53
2022/04/06 02:52:05;;;;;;;18.75;12.80;;;7.60;99.90;;;;;;5049532;28;20025;-53
2022/04/06 02:54:30;;;;;;;17.08;12.93;;;7.60;99.90;;;;;;5049131;28;20068;-53
2022/04/06 02:56:56;;;;;;;17.90;13.07;;;7.60;99.90;;;;;;5049004;28;20025;-53
2022/04/06 02:59:22;;;;;;;22.20;14.85;;;7.50;99.90;;;;;;5049320;28;20115;-53
2022/04/06 03:01:47;;;;;;;22.58;14.60;;;7.50;99.90;;;;;;5048755;28;20039;-53
2022/04/06 03:04:13;;;;;;;20.65;15.02;;;7.50;99.90;;;;;;5048891;28;20090;-54
2022/04/06 03:06:40;;;;;;;22.20;14.98;;;7.60;99.90;;;;;;5049185;28;20098;-54
2022/04/06 03:09:07;;;;;;;21.85;15.40;;;7.60;99.90;;;;;;5048948;28;20736;-53
2022/04/06 03:11:33;;;;;;;21.58;15.05;;;7.60;99.90;;;;;;5049201;28;20040;-52
2022/04/06 03:13:59;;;;;;;22.60;15.63;;;7.60;99.90;;;;;;5048824;28;20101;-53
2022/04/06 03:16:25;;;;;;;23.63;15.57;;;7.60;99.90;;;;;;5049048;28;20132;-53
2022/04/06 03:18:51;;;;;;;24.55;16.30;;;7.60;99.90;;;;;;5044734;28;20053;-54
2022/04/06 03:21:16;;;;;;;25.40;16.08;;;7.60;99.90;;;;;;5049170;28;20079;-54
2022/04/06 03:23:42;;;;;;;22.95;15.93;;;7.70;99.90;;;;;;5048998;28;20025;-53
2022/04/06 03:26:08;;;;;;;25.40;17.17;;;7.70;99.90;;;;;;5048561;28;20542;-53
2022/04/06 03:28:35;;;;;;;26.17;17.27;;;7.70;99.90;;;;;;5048753;28;20631;-53
2022/04/06 03:31:00;;;;;;;20.45;14.90;;;7.80;99.90;;;;;;5048641;28;20791;-52
2022/04/06 03:33:26;;;;;;;21.85;15.00;;;7.80;99.90;;;;;;5049046;28;20108;-52
2022/04/06 03:35:52;;;;;;;25.50;15.90;;;7.80;99.90;;;;;;5048924;28;20064;-52
2022/04/06 03:38:18;;;;;;;20.52;14.00;;;7.80;99.90;;;;;;5048627;28;20019;-54
2022/04/06 03:40:43;;;;;;;20.60;14.20;;;7.90;99.90;;;;;;5049030;28;20115;-53
2022/04/06 03:43:09;;;;;;;20.90;14.85;;;7.90;99.90;;;;;;5052690;28;20111;-53
2022/04/06 03:45:35;;;;;;;21.10;14.00;;;7.90;99.90;;;;;;5052780;28;20028;-53
2022/04/06 03:48:01;;;;;;;23.73;14.35;;;7.90;99.90;;;;;;5052879;28;20025;-53
2022/04/06 03:50:27;;;;;;;21.55;14.30;;;7.80;99.90;;;;;;5052508;28;20024;-53
2022/04/06 03:52:52;;;;;;;18.88;13.48;;;7.90;99.90;;;;;;5052432;28;20067;-53
2022/04/06 03:55:18;;;;;;;19.75;13.75;;;7.90;99.90;;;;;;5052558;28;20056;-53
2022/04/06 03:57:44;;;;;;;22.48;15.52;;;7.90;99.90;;;;;;5052592;28;20032;-51
2022/04/06 04:00:12;;;;;;;23.20;15.82;;;7.90;99.90;;;;;;5052174;28;20033;-52
2022/04/06 04:02:38;;;;;;;21.83;14.70;;;7.90;99.90;;;;;;5052294;28;20546;-52
2022/04/06 04:05:04;;;;;;;22.95;16.45;;;7.90;99.90;;;;;;5052297;28;20060;-52
2022/04/06 04:07:31;;;;;;;22.42;15.68;;;7.90;99.90;;;;;;5052234;28;20547;-52
2022/04/06 04:09:57;;;;;;;28.08;17.13;;;7.90;99.90;;;;;;5052216;28;20063;-52
2022/04/06 04:12:23;;;;;;;24.58;15.85;;;7.90;99.90;;;;;;5052098;28;20104;-52
2022/04/06 04:14:49;;;;;;;25.52;15.68;;;7.90;99.90;;;;;;5051858;28;20082;-52
2022/04/06 04:17:15;;;;;;;24.80;16.50;;;8.00;99.90;;;;;;5049485;28;20032;-53
2022/04/06 04:19:40;;;;;;;21.90;14.65;;;8.00;99.90;;;;;;5049758;28;20021;-53
2022/04/06 04:22:06;;;;;;;23.38;15.80;;;7.90;99.90;;;;;;5051928;28;20052;-53
2022/04/06 04:24:32;;;;;;;18.20;13.73;;;8.00;99.90;;;;;;5051676;28;20419;-52
2022/04/06 04:26:59;;;;;;;21.60;13.63;;;7.90;99.90;;;;;;5050343;28;20029;-53
2022/04/06 04:29:25;;;;;;;24.38;13.35;;;8.00;99.90;;;;;;5051656;28;20074;-53
2022/04/06 04:31:50;;;;;;;17.58;12.35;;;8.00;99.90;;;;;;5051759;28;20025;-53
2022/04/06 04:34:16;;;;;;;20.10;13.95;;;8.00;99.90;;;;;;5051582;28;20037;-52
2022/04/06 04:36:42;;;;;;;20.45;13.60;;;8.00;99.90;;;;;;5051370;28;20025;-53
2022/04/06 04:39:07;;;;;;;21.75;13.88;;;8.00;99.90;;;;;;5051575;28;20021;-54
2022/04/06 04:41:33;;;;;;;21.77;14.20;;;8.10;99.90;;;;;;5051424;28;20478;-52
2022/04/06 04:43:59;;;;;;;21.65;14.40;;;8.10;99.90;;;;;;5051592;28;20029;-52
2022/04/06 04:46:25;;;;;;;18.30;13.25;;;8.10;99.90;;;;;;5050173;28;20021;-51
2022/04/06 04:48:51;;;;;;;23.00;15.50;;;8.10;99.90;;;;;;5051247;28;20021;-51
2022/04/06 04:51:16;;;;;;;21.95;14.55;;;8.10;99.90;;;;;;5051525;28;20025;-51
2022/04/06 04:53:42;;;;;;;22.45;13.38;;;8.10;99.90;;;;;;5051140;28;20409;-54
2022/04/06 04:56:11;;;;;;;19.25;13.27;;;8.20;99.90;;;;;;5051413;28;20024;-55
2022/04/06 04:58:37;;;;;;;21.42;14.40;;;8.20;99.90;;;;;;5051036;28;20071;-51
2022/04/06 05:01:03;;;;;;;20.83;13.48;;;8.20;99.90;;;;;;5051298;28;20428;-52
2022/04/06 05:03:29;;;;;;;22.27;15.07;;;8.10;99.90;;;;;;5049726;28;20037;-53
2022/04/06 05:05:56;;;;;;;19.88;14.35;;;8.10;99.90;;;;;;5050960;28;20523;-52
2022/04/06 05:08:22;;;;;;;22.90;12.80;;;8.10;99.90;;;;;;5051254;28;20028;-54
2022/04/06 05:10:48;;;;;;;21.43;14.00;;;8.20;99.90;;;;;;5050750;28;20021;-54
2022/04/06 05:13:17;;;;;;;19.30;12.43;;;8.20;99.90;;;;;;5050725;28;20449;-51
2022/04/06 05:15:43;;;;;;;21.67;14.32;;;8.20;99.90;;;;;;5050874;28;20051;-55
2022/04/06 05:18:09;;;;;;;22.45;12.40;;;8.20;99.90;;;;;;5045590;28;20404;-53
2022/04/06 05:20:34;;;;;;;22.83;13.05;;;8.20;99.90;;;;;;5050866;28;20025;-52
2022/04/06 05:23:00;;;;;;;19.58;13.07;;;8.30;99.90;;;;;;5050666;28;20819;-52
2022/04/06 05:25:26;;;;;;;19.15;13.23;;;8.30;99.90;;;;;;5050544;28;20021;-52
2022/04/06 05:27:54;;;;;;;22.13;14.38;;;8.30;99.90;;;;;;5050624;28;20098;-53
2022/04/06 05:30:24;;;;;;;22.00;14.10;;;8.30;99.90;;;;;;5050752;28;20025;-52
2022/04/06 05:32:53;;;;;;;21.98;13.95;;;8.40;99.90;;;;;;5050442;28;20036;-53
2022/04/06 05:35:19;;;;;;;21.35;13.48;;;8.40;99.90;;;;;;5050723;28;20114;-52
2022/04/06 05:37:45;;;;;;;17.52;12.65;;;8.40;99.90;;;;;;5050588;28;20199;-53
2022/04/06 05:40:14;;;;;;;19.23;12.38;;;8.50;99.90;;;;;;5050370;28;20507;-53
2022/04/06 05:42:40;;;;;;;19.38;12.90;;;8.50;99.90;;;;;;5050433;28;20169;-52
2022/04/06 05:45:07;;;;;;;17.58;12.27;;;8.50;99.90;;;;;;5050116;28;20116;-51
2022/04/06 05:47:34;;;;;;;16.67;11.60;;;8.60;99.90;;;;;;5050374;28;20033;-55
2022/04/06 05:50:00;;;;;;;23.33;12.10;;;8.60;99.90;;;;;;5050210;28;20104;-52
2022/04/06 05:52:26;;;;;;;17.75;12.13;;;8.60;99.90;;;;;;5050351;28;20025;-54
2022/04/06 05:54:52;;;;;;;16.77;11.60;;;8.70;99.90;;;;;;5049869;28;20043;-52
2022/04/06 05:57:19;;;;;;;18.55;11.77;;;8.70;99.90;;;;;;5049970;28;20037;-52
2022/04/06 05:59:45;;;;;;;20.27;12.00;;;8.80;99.90;;;;;;5050330;28;20032;-51
2022/04/06 06:02:11;;;;;;;17.73;12.30;;;8.90;99.90;;;;;;5049973;28;20120;-53
2022/04/06 06:04:38;;;;;;;17.48;11.57;;;8.90;99.90;;;;;;5049480;28;20064;-52
2022/04/06 06:07:07;;;;;;;15.18;10.98;;;8.90;99.90;;;;;;5050031;28;20029;-53
2022/04/06 06:09:34;;;;;;;18.77;11.73;;;9.00;99.90;;;;;;5050126;28;20029;-54
2022/04/06 06:12:00;;;;;;;18.15;11.80;;;9.00;99.90;;;;;;5049784;28;20028;-52
2022/04/06 06:14:27;;;;;;;17.05;11.25;;;9.00;99.90;;;;;;5049736;28;20040;-54
2022/04/06 06:16:53;;;;;;;16.63;10.70;;;9.00;99.90;;;;;;5049833;28;20029;-53
2022/04/06 06:19:19;;;;;;;16.42;11.15;;;9.00;99.90;;;;;;5045830;28;20060;-55
2022/04/06 06:21:45;;;;;;;23.65;13.55;;;9.00;99.90;;;;;;5048038;28;20027;-54
2022/04/06 06:24:11;;;;;;;18.17;11.52;;;9.00;99.90;;;;;;5049476;28;20375;-54
2022/04/06 06:26:42;;;;;;;21.23;13.40;;;9.00;99.90;;;;;;5049562;28;20061;-52
2022/04/06 06:29:08;;;;;;;17.30;11.70;;;9.10;99.90;;;;;;5049636;28;20040;-52
2022/04/06 06:31:34;;;;;;;18.92;12.43;;;9.10;99.90;;;;;;5049540;28;20479;-53
2022/04/06 06:34:00;;;;;;;18.38;12.68;;;9.10;99.90;;;;;;5049486;28;20024;-53
2022/04/06 06:36:26;;;;;;;19.42;10.68;;;9.10;99.90;;;;;;5049129;28;20036;-53
2022/04/06 06:38:53;;;;;;;18.75;11.35;;;9.20;99.90;;;;;;5049295;28;20029;-53
2022/04/06 06:41:19;;;;;;;18.25;11.32;;;9.20;99.90;;;;;;5049269;28;20124;-53
2022/04/06 06:43:48;;;;;;;18.33;10.63;;;9.20;99.90;;;;;;5049357;28;20458;-54
2022/04/06 06:46:15;;;;;;;16.75;10.18;;;9.30;99.90;;;;;;5049270;28;20017;-53
2022/04/06 06:48:40;;;;;;;16.38;10.15;;;9.30;99.90;;;;;;5049185;28;20033;-55
2022/04/06 06:51:06;;;;;;;16.55;10.23;;;9.30;99.90;;;;;;5049117;28;20025;-55
2022/04/06 06:53:32;;;;;;;17.25;10.63;;;9.30;99.90;;;;;;5049113;28;20056;-55
2022/04/06 06:55:57;;;;;;;16.10;10.82;;;9.30;99.90;;;;;;5049019;28;20109;-54
2022/04/06 06:58:23;;;;;;;17.23;10.50;;;9.40;99.90;;;;;;5049007;28;20049;-54
2022/04/06 07:00:49;;;;;;;15.07;10.13;;;9.40;99.90;;;;;;5049185;28;20374;-52
2022/04/06 07:03:14;;;;;;;17.48;11.25;;;9.40;99.90;;;;;;5048826;28;20083;-54
2022/04/06 07:05:40;;;;;;;19.15;11.38;;;9.40;99.90;;;;;;5048548;28;20045;-52
2022/04/06 07:08:06;;;;;;;22.77;12.60;;;9.40;99.90;;;;;;5049075;28;20028;-53
2022/04/06 07:10:32;;;;;;;16.20;10.93;;;9.40;99.90;;;;;;5048855;28;20358;-53
2022/04/06 07:12:58;;;;;;;17.08;10.40;;;9.40;99.90;;;;;;5048663;28;20627;-55
2022/04/06 07:15:24;;;;;;;19.27;11.63;;;9.50;99.90;;;;;;5046968;28;20495;-53
2022/04/06 07:17:51;;;;;;;15.55;10.70;;;9.50;99.90;;;;;;5044682;28;20483;-52
2022/04/06 07:20:17;;;;;;;22.85;14.00;;;9.70;99.90;;;;;;5048833;28;20040;-53
2022/04/06 07:22:43;;;;;;;17.85;11.27;;;9.70;99.90;;;;;;5048465;28;20036;-53
2022/04/06 07:25:09;;;;;;;18.08;11.32;;;9.70;99.90;;;;;;5048548;28;20482;-53
2022/04/06 07:27:36;;;;;;;18.63;11.13;;;9.80;99.90;;;;;;5048538;28;20025;-52
2022/04/06 07:30:05;;;;;;;19.70;11.90;;;9.70;99.90;;;;;;5048718;28;20068;-52
2022/04/06 07:32:32;;;;;;;20.30;12.38;;;9.70;99.90;;;;;;5048580;28;20032;-52
2022/04/06 07:34:58;;;;;;;18.38;11.07;;;9.60;99.90;;;;;;5048524;28;20032;-53
2022/04/06 07:37:24;;;;;;;17.05;10.15;;;9.60;99.90;;;;;;5048662;28;20386;-53
2022/04/06 07:39:49;;;;;;;17.20;11.32;;;9.50;99.90;;;;;;5048564;28;20532;-52
2022/04/06 07:42:15;;;;;;;19.17;12.00;;;9.50;99.90;;;;;;5048407;28;20112;-52
2022/04/06 07:44:41;;;;;;;22.38;13.68;;;9.50;99.90;;;;;;5048567;28;20086;-53
2022/04/06 07:47:07;;;;;;;21.33;13.70;;;9.50;99.90;;;;;;5048378;28;20472;-53
2022/04/06 07:49:33;;;;;;;17.45;12.32;;;9.40;99.90;;;;;;5048338;28;20048;-54
2022/04/06 07:51:58;;;;;;;19.75;13.40;;;9.40;99.90;;;;;;5048699;28;20102;-53
2022/04/06 07:54:24;;;;;;;18.73;12.60;;;9.40;99.90;;;;;;5048181;28;20052;-51
2022/04/06 07:56:50;;;;;;;21.88;12.52;;;9.40;99.90;;;;;;5048249;28;20094;-54
2022/04/06 07:59:15;;;;;;;21.50;12.95;;;9.40;99.90;;;;;;5047158;28;20625;-51
2022/04/06 08:01:41;;;;;;;20.83;13.55;;;9.40;99.90;;;;;;5047995;28;20048;-51
2022/04/06 08:04:07;;;;;;;16.42;11.68;;;9.40;99.90;;;;;;5048036;28;20035;-53
2022/04/06 08:06:32;;;;;;;18.90;12.65;;;9.40;99.90;;;;;;5048457;28;20025;-53
2022/04/06 08:08:59;;;;;;;20.95;13.50;;;9.40;99.90;;;;;;5048406;28;20477;-54
2022/04/06 08:11:25;;;;;;;17.63;12.40;;;9.50;99.90;;;;;;5048306;28;20091;-53
2022/04/06 08:13:51;;;;;;;22.30;14.47;;;9.40;99.90;;;;;;5048472;28;20040;-53
2022/04/06 08:16:17;;;;;;;22.98;13.48;;;9.40;99.90;;;;;;5048241;28;20029;-53
2022/04/06 08:18:43;;;;;;;21.10;14.07;;;9.40;99.90;;;;;;5044250;28;20033;-54
2022/04/06 08:21:09;;;;;;;19.40;12.02;;;9.40;99.90;;;;;;5048203;28;20029;-53
2022/04/06 08:23:35;;;;;;;20.80;13.32;;;9.50;99.90;;;;;;5048398;28;20111;-53
2022/04/06 08:26:01;;;;;;;22.67;14.07;;;9.50;99.90;;;;;;5048422;28;20031;-53
2022/04/06 08:28:27;;;;;;;16.23;11.57;;;9.60;99.90;;;;;;5051221;28;20271;-54
2022/04/06 08:30:53;;;;;;;20.88;13.52;;;9.70;99.90;;;;;;5051933;28;20468;-53
2022/04/06 08:33:19;;;;;;;20.23;13.25;;;9.70;99.90;;;;;;5051664;28;20025;-53
2022/04/06 08:35:47;;;;;;;21.42;13.23;;;10.00;99.90;;;;;;5051895;28;20400;-51
2022/04/06 08:38:15;;;;;;;16.80;11.35;;;10.20;99.90;;;;;;5051667;28;20087;-51
2022/04/06 08:40:42;;;;;;;18.85;11.95;;;10.40;99.90;;;;;;5051989;28;20033;-53
2022/04/06 08:43:09;;;;;;;;;;;10.40;99.90;;;;;;5051683;28;20496;-52
2022/04/06 08:45:39;;;;;;;15.15;9.93;;;10.40;99.90;;;;;;5051828;28;19940;-53
2022/04/06 08:48:09;;;;;;;18.00;11.63;;;10.30;99.90;;;;;;5051787;28;20029;-51
2022/04/06 08:50:36;;;;;;;16.75;11.18;;;10.40;99.90;;;;;;5051756;28;20116;-50
2022/04/06 08:53:04;;;;;;;16.67;10.23;;;10.40;99.90;;;;;;5051234;28;20021;-53
2022/04/06 08:55:31;;;;;;;14.73;9.45;;;10.40;99.90;;;;;;5051676;28;20626;-53
2022/04/06 08:57:57;;;;;;;16.75;10.15;;;10.50;99.90;;;;;;5051392;28;20381;-52
2022/04/06 09:00:24;;;;;;;15.25;9.82;;;10.50;99.90;;;;;;5051179;28;20057;-52
2022/04/06 09:02:49;;;;;;;12.82;9.23;;;10.50;99.90;;;;;;5033828;28;20041;-54
2022/04/06 09:05:19;;;;;;;16.05;10.43;;;10.80;99.90;;;;;;5029503;28;20064;-54
2022/04/06 09:07:51;;;;;;;15.18;9.82;;;11.00;99.90;;;;;;5029726;28;20021;-53
2022/04/06 09:10:32;;;;;;;21.35;11.88;;;11.10;99.90;;;;;;5031152;28;20465;-52
2022/04/06 09:13:10;;;;;;;14.07;10.10;;;11.20;99.90;;;;;;5031063;28;20142;-52
2022/04/06 09:15:36;;;;;;;15.85;9.93;;;11.20;99.90;;;;;;5029908;28;20076;-52
2022/04/06 09:18:02;;;;;;;13.02;9.07;;;11.20;99.90;;;;;;5034505;28;20033;-52
2022/04/06 09:20:30;;;;;;;14.27;9.57;;;11.10;99.90;;;;;;5049184;28;20072;-51
2022/04/06 09:22:58;;;;;;;13.50;8.18;;;11.10;99.90;;;;;;5049176;28;20039;-54
2022/04/06 09:25:24;;;;;;;12.48;7.78;;;11.10;99.90;;;;;;5048905;28;20025;-53
2022/04/06 09:27:49;;;;;;;13.45;8.52;;;11.10;99.90;;;;;;5048907;28;20039;-51
2022/04/06 09:30:16;;;;;;;12.85;8.77;;;11.10;99.90;;;;;;5050265;28;20031;-52
2022/04/06 09:32:42;;;;;;;12.10;7.80;;;11.00;99.90;;;;;;5050757;28;20028;-52
2022/04/06 09:35:37;;;;;;;12.80;8.15;;;10.90;99.90;;;;;;5050769;28;20627;-51
2022/04/06 09:38:13;;;;;;;14.45;7.97;;;10.80;99.90;;;;;;5041617;28;20037;-54
2022/04/06 09:40:39;;;;;;;15.98;9.40;;;10.80;99.90;;;;;;5049562;28;20790;-53
2022/04/06 09:43:06;;;;;;;20.43;10.27;;;10.80;99.90;;;;;;5050368;28;20072;-54
2022/04/06 09:48:16;;;;;;;16.45;8.70;;;10.80;99.90;;;;;;5050165;28;20124;-52
2022/04/06 09:50:54;;;;;;;15.40;9.90;;;10.80;99.90;;;;;;5050118;28;20120;-52
2022/04/06 09:53:24;;;;;;;;;;;10.90;99.90;;;;;;5050809;28;20029;-51
2022/04/06 09:55:52;;;;;;;13.15;9.27;;;10.90;99.90;;;;;;5050162;28;19916;-53
2022/04/06 09:58:18;;;;;;;16.98;10.68;;;10.90;99.90;;;;;;5050011;28;20384;-52
2022/04/06 10:00:44;;;;;;;17.48;9.70;;;11.00;99.90;;;;;;5049644;28;20095;-52
2022/04/06 10:03:12;;;;;;;17.63;9.57;;;11.00;99.90;;;;;;5050018;28;20037;-53
2022/04/06 10:05:40;;;;;;;18.90;11.52;;;11.00;99.90;;;;;;5049604;28;20382;-54
2022/04/06 10:08:10;;;;;;;14.55;9.38;;;11.00;99.90;;;;;;5048761;28;20029;-54
2022/04/06 10:10:38;;;;;;;20.20;11.40;;;11.00;99.90;;;;;;5029771;28;20014;-54
2022/04/06 10:13:04;;;;;;;20.58;12.13;;;11.10;99.90;;;;;;5029470;28;20034;-52
2022/04/06 10:15:31;;;;;;;25.20;12.27;;;11.10;99.90;;;;;;5029757;28;20087;-53
2022/04/06 10:17:57;;;;;;;16.73;10.32;;;11.20;99.90;;;;;;5033554;28;20017;-53
2022/04/06 10:20:50;;;;;;;16.20;10.00;;;11.30;99.90;;;;;;5029750;28;20060;-53
2022/04/06 10:23:40;;;;;;;16.55;9.88;;;11.30;99.90;;;;;;5029496;28;20644;-53
2022/04/06 10:26:35;;;;;;;15.32;8.48;;;11.30;99.90;;;;;;5029322;28;20381;-52
2022/04/06 10:29:00;;;;;;;13.90;8.13;;;11.40;99.90;;;;;;5029251;28;20037;-54
2022/04/06 10:31:30;;;;;;;13.35;7.35;;;11.50;99.90;;;;;;5029319;28;20061;-50
2022/04/06 10:34:17;;;;;;;10.13;5.85;;;11.50;99.90;;;;;;5025521;28;20095;-52
2022/04/06 10:36:44;;;;;;;11.27;6.68;;;11.50;99.90;;;;;;5019193;28;20040;-50
2022/04/06 10:39:11;;;;;;;9.85;6.35;;;11.40;99.90;;;;;;5018294;28;20548;-53
2022/04/06 10:41:41;;;;;;;11.60;6.57;;;11.50;99.90;;;;;;5018282;28;20064;-52
2022/04/06 10:44:27;;;;;;;13.82;7.90;;;11.50;99.90;;;;;;5018359;28;20469;-53
2022/04/06 10:47:08;;;;;;;12.45;6.60;;;11.50;99.90;;;;;;5013140;28;20117;-52
2022/04/06 10:49:35;;;;;;;12.15;7.18;;;11.60;99.90;;;;;;5022658;28;20907;-53
2022/04/06 10:52:24;;;;;;;18.77;9.82;;;11.60;99.90;;;;;;5019029;28;20033;-52
2022/04/06 10:54:51;;;;;;;14.63;7.60;;;11.70;99.90;;;;;;5020101;28;20034;-52
2022/04/06 10:57:19;;;;;;;13.52;8.30;;;11.70;99.90;;;;;;5017602;28;20014;-53
2022/04/06 11:00:11;;;;;;;11.23;6.95;;;11.80;99.90;;;;;;5018018;28;20034;-53
2022/04/06 11:02:47;;;;;;;12.48;6.93;;;11.80;99.90;;;;;;5017556;28;20041;-52
2022/04/06 11:05:59;;;;;;;15.65;6.75;;;11.90;99.90;;;;;;5016540;28;20038;-52
2022/04/06 11:11:42;;;;;;;13.70;7.55;;;11.90;99.90;;;;;;5018974;28;20048;-52
2022/04/06 11:14:09;;;;;;;10.73;6.85;;;12.10;99.90;;;;;;5018398;28;20026;-54
2022/04/06 11:16:45;;;;;;;8.60;5.55;;;12.10;99.90;;;;;;5016606;28;20462;-52
2022/04/06 11:19:15;;;;;;;11.35;6.82;;;12.10;99.90;;;;;;5020305;28;20402;-52
2022/04/06 11:21:52;;;;;;;12.02;7.07;;;12.10;99.90;;;;;;5017038;28;20023;-50
2022/04/06 11:24:28;;;;;;;13.43;6.97;;;12.20;99.90;;;;;;5016621;28;20485;-51
2022/04/06 11:26:54;;;;;;;9.25;6.35;;;12.20;99.90;;;;;;4998787;28;20505;-51
2022/04/06 11:29:28;;;;;;;9.88;6.30;;;12.10;99.90;;;;;;5016671;28;20037;-52
2022/04/06 11:31:54;;;;;;;12.13;6.88;;;12.10;99.90;;;;;;5018300;28;20040;-53
2022/04/06 11:34:35;;;;;;;13.10;6.80;;;12.10;99.90;;;;;;5017183;28;20127;-53
2022/04/06 11:37:02;;;;;;;11.90;7.30;;;12.10;99.90;;;;;;5017139;28;20549;-53
2022/04/06 11:39:29;;;;;;;;;;;12.10;99.90;;;;;;5017274;28;20079;-54
2022/04/06 11:41:55;;;;;;;10.15;6.13;;;12.10;99.90;;;;;;5018056;28;19913;-51
2022/04/06 11:44:24;;;;;;;12.65;6.13;;;12.10;99.90;;;;;;5017231;28;20091;-52
2022/04/06 11:46:51;;;;;;;13.65;6.97;;;12.10;99.90;;;;;;5016228;28;20018;-51
2022/04/06 11:49:24;;;;;;;12.18;6.68;;;12.10;99.90;;;;;;5016539;28;20026;-53
2022/04/06 11:51:52;;;;;;;13.35;7.53;;;12.20;99.90;;;;;;5016657;28;20026;-52
2022/04/06 11:54:18;;;;;;;8.30;5.55;;;12.20;99.90;;;;;;5016132;28;20476;-52
2022/04/06 11:56:47;;;;;;;8.80;5.93;;;12.20;99.90;;;;;;5016993;28;20064;-53
2022/04/06 11:59:16;;;;;;;11.65;6.15;;;12.20;99.90;;;;;;5018121;28;20072;-53
2022/04/06 12:01:43;;;;;;;8.68;5.63;;;12.20;99.90;;;;;;5016588;28;20084;-52
2022/04/06 12:04:16;;;;;;;10.07;6.30;;;12.20;99.90;;;;;;5020671;28;20084;-53
2022/04/06 12:06:43;;;;;;;12.13;6.78;;;12.30;99.90;;;;;;5020849;28;20504;-51
2022/04/06 12:09:09;;;;;;;10.77;6.67;;;12.30;99.90;;;;;;5020604;28;20052;-53
2022/04/06 12:11:39;;;;;;;10.88;6.78;;;12.40;99.90;;;;;;5021750;28;20176;-52
2022/04/06 12:14:09;;;;;;;9.60;5.85;;;12.40;99.90;;;;;;5020902;28;20037;-52
2022/04/06 12:16:34;;;;;;;12.32;7.07;;;12.40;99.90;;;;;;5019739;28;20676;-55
2022/04/06 12:19:00;;;;;;;10.35;7.00;;;12.50;99.90;;;;;;5023666;28;20026;-52
2022/04/06 12:21:28;;;;;;;14.60;8.52;;;12.50;99.90;;;;;;5020497;28;20109;-51
2022/04/06 12:23:55;;;;;;;17.13;8.02;;;12.60;99.90;;;;;;5021908;28;20044;-53
2022/04/06 12:26:25;;;;;;;12.60;7.73;;;12.70;99.90;;;;;;5020395;28;20461;-53
2022/04/06 12:28:58;;;;;;;12.60;7.50;;;12.80;99.90;;;;;;5019741;28;20025;-54
2022/04/06 12:31:38;;;;;;;12.43;6.95;;;12.90;99.90;;;;;;5020399;28;20130;-52
2022/04/06 12:34:04;;;;;;;12.07;6.88;;;12.90;99.90;;;;;;5020646;28;20670;-52
2022/04/06 12:36:33;;;;;;;13.38;6.75;;;13.00;99.90;;;;;;5019903;28;20025;-51
2022/04/06 12:39:04;;;;;;;11.63;6.15;;;13.10;99.90;;;;;;5019514;28;20092;-51
2022/04/06 12:41:32;;;;;;;11.32;6.70;;;13.20;99.90;;;;;;5018280;28;20029;-52
2022/04/06 12:44:00;;;;;;;13.23;5.43;;;13.20;99.90;;;;;;5019876;28;20049;-53
2022/04/06 12:46:44;;;;;;;14.98;7.40;;;13.40;99.90;;;;;;5020467;28;20508;-50
2022/04/06 12:49:25;;;;;;;10.55;6.32;;;13.40;99.90;;;;;;5021286;28;20069;-52
2022/04/06 12:52:07;;;;;;;10.80;5.82;;;13.60;99.90;;;;;;5021380;28;20029;-52